createdAt,value
2019-01-15T00:00:04.447Z,32.6
2019-01-15T00:00:55.048Z,32.6
2019-01-15T00:01:45.048Z,32.8
2019-01-15T00:02:34.527Z,31.9
2019-01-15T00:03:24.896Z,31.4
2019-01-15T00:04:15.003Z,31.3
2019-01-15T00:05:05.120Z,30.9
2019-01-15T00:05:55.328Z,30.3
2019-01-15T00:06:45.099Z,29.7
2019-01-15T00:07:34.858Z,28.9
2019-01-15T00:08:24.974Z,28.2
2019-01-15T00:09:15.593Z,27.6
2019-01-15T00:10:04.283Z,27.3
2019-01-15T00:10:55.405Z,27
2019-01-15T00:11:45.726Z,26.9
2019-01-15T00:12:35.481Z,26.9
2019-01-15T00:13:25.000Z,26.6
2019-01-15T00:14:15.653Z,27.3
2019-01-15T00:15:05.487Z,28.1
2019-01-15T00:15:55.770Z,28.6
2019-01-15T00:16:46.060Z,29.1
2019-01-15T00:17:35.819Z,29.5
2019-01-15T00:18:25.889Z,29.8
2019-01-15T00:19:15.942Z,30.1
2019-01-15T00:20:06.335Z,30.4
2019-01-15T00:20:56.104Z,30.6
2019-01-15T00:21:46.137Z,30.8
2019-01-15T00:22:35.925Z,31.1
2019-01-15T00:23:26.287Z,31.2
2019-01-15T00:24:16.309Z,31.4
2019-01-15T00:25:06.684Z,31.5
2019-01-15T00:25:55.597Z,31.7
2019-01-15T00:26:46.724Z,31.8
2019-01-15T00:27:36.858Z,31.9
2019-01-15T00:28:26.287Z,32.1
2019-01-15T00:29:16.964Z,32.1
2019-01-15T00:30:06.148Z,32.3
2019-01-15T00:30:56.734Z,32.4
2019-01-15T00:31:46.739Z,32.4
2019-01-15T00:32:37.129Z,32.6
2019-01-15T00:33:27.221Z,32.6
2019-01-15T00:34:16.975Z,32.7
2019-01-15T00:35:06.901Z,31.7
2019-01-15T00:35:57.061Z,30.4
2019-01-15T00:36:48.811Z,28.4
2019-01-15T00:37:37.251Z,27.3
2019-01-15T00:38:27.256Z,27.3
2019-01-15T00:39:17.598Z,27.6
2019-01-15T00:40:07.486Z,28.6
2019-01-15T00:40:56.853Z,29.3
2019-01-15T00:41:47.188Z,29.7
2019-01-15T00:42:37.528Z,30.1
2019-01-15T00:43:29.571Z,30.4
2019-01-15T00:44:17.088Z,30.8
2019-01-15T00:45:07.693Z,31
2019-01-15T00:45:57.816Z,31.2
2019-01-15T00:46:48.098Z,31.4
2019-01-15T00:47:37.855Z,31.6
2019-01-15T00:48:28.195Z,31.8
2019-01-15T00:49:18.035Z,31.9
2019-01-15T00:50:07.923Z,32.1
2019-01-15T00:50:58.083Z,32.2
2019-01-15T00:51:48.477Z,32.3
2019-01-15T00:52:38.478Z,32.4
2019-01-15T00:53:28.553Z,32.6
2019-01-15T00:54:18.065Z,32.6
2019-01-15T00:55:08.097Z,32.8
2019-01-15T00:55:57.865Z,31.9
2019-01-15T00:56:48.482Z,31.4
2019-01-15T00:57:38.302Z,31.3
2019-01-15T00:58:28.572Z,30.9
2019-01-15T00:59:18.390Z,30.3
2019-01-15T01:00:08.157Z,29.6
2019-01-15T01:00:58.218Z,28.9
2019-01-15T01:01:49.109Z,28.3
2019-01-15T01:03:29.202Z,27.4
2019-01-15T01:04:18.733Z,27.2
2019-01-15T01:05:09.122Z,27
2019-01-15T01:05:59.441Z,27
2019-01-15T01:06:48.954Z,26.8
2019-01-15T01:07:39.551Z,26.9
2019-01-15T01:09:19.334Z,28.4
2019-01-15T01:10:09.222Z,28.9
2019-01-15T01:10:59.744Z,29.3
2019-01-15T01:11:49.785Z,29.7
2019-01-15T01:12:39.821Z,30
2019-01-15T01:13:29.611Z,30.3
2019-01-15T01:14:19.736Z,30.5
2019-01-15T01:15:09.744Z,30.8
2019-01-15T01:15:59.511Z,30.9
2019-01-15T01:16:49.844Z,31.1
2019-01-15T01:17:39.896Z,31.3
2019-01-15T01:18:29.711Z,31.4
2019-01-15T01:19:20.004Z,31.6
2019-01-15T01:20:10.046Z,31.7
2019-01-15T01:21:00.123Z,31.8
2019-01-15T01:21:50.214Z,31.9
2019-01-15T01:22:39.958Z,32.1
2019-01-15T01:23:30.013Z,32.1
2019-01-15T01:24:20.351Z,32.3
2019-01-15T01:25:10.413Z,32.4
2019-01-15T01:26:00.788Z,32.4
2019-01-15T01:26:50.781Z,32.5
2019-01-15T01:27:40.563Z,32.6
2019-01-15T01:28:30.678Z,32.7
2019-01-15T01:29:20.677Z,32.1
2019-01-15T01:30:11.013Z,31.4
2019-01-15T01:31:00.539Z,31.2
2019-01-15T01:31:50.848Z,30.9
2019-01-15T01:32:41.216Z,30.4
2019-01-15T01:33:30.693Z,29.8
2019-01-15T01:34:21.057Z,29.1
2019-01-15T01:35:10.802Z,28.4
2019-01-15T01:36:00.899Z,27.9
2019-01-15T01:36:51.195Z,27.5
2019-01-15T01:37:41.529Z,27.3
2019-01-15T01:38:30.742Z,27.1
2019-01-15T01:39:20.324Z,27.1
2019-01-15T01:40:10.935Z,26.8
2019-01-15T01:41:00.989Z,27
2019-01-15T01:42:41.297Z,28.4
2019-01-15T01:43:31.673Z,28.9
2019-01-15T01:44:21.707Z,29.3
2019-01-15T01:45:12.032Z,29.6
2019-01-15T01:46:01.265Z,29.9
2019-01-15T01:46:51.312Z,30.2
2019-01-15T01:47:41.641Z,30.4
2019-01-15T01:48:31.976Z,30.6
2019-01-15T01:49:22.317Z,30.8
2019-01-15T01:50:12.358Z,31
2019-01-15T01:51:01.648Z,31.1
2019-01-15T01:51:52.244Z,31.3
2019-01-15T01:52:41.167Z,31.4
2019-01-15T01:53:32.109Z,31.6
2019-01-15T01:54:21.818Z,31.7
2019-01-15T01:55:12.414Z,31.8
2019-01-15T01:56:02.001Z,31.9
2019-01-15T01:56:52.602Z,31.9
2019-01-15T01:57:42.598Z,32.1
2019-01-15T01:58:32.391Z,32.2
2019-01-15T01:59:22.763Z,32.3
2019-01-15T02:00:13.058Z,32.4
2019-01-15T02:01:02.009Z,32.4
2019-01-15T02:01:52.955Z,32.6
2019-01-15T02:02:42.911Z,32.7
2019-01-15T02:03:32.723Z,32.2
2019-01-15T02:04:23.070Z,31.4
2019-01-15T02:05:12.587Z,31.2
2019-01-15T02:06:02.888Z,30.9
2019-01-15T02:06:53.260Z,30.5
2019-01-15T02:07:42.790Z,29.9
2019-01-15T02:08:33.615Z,29.2
2019-01-15T02:09:23.710Z,28.5
2019-01-15T02:10:12.983Z,28.1
2019-01-15T02:11:03.215Z,27.8
2019-01-15T02:11:53.535Z,27.6
2019-01-15T02:12:45.077Z,27.4
2019-01-15T02:13:33.661Z,27.3
2019-01-15T02:14:23.732Z,27
2019-01-15T02:15:13.510Z,27.1
2019-01-15T02:16:54.185Z,28.4
2019-01-15T02:17:43.657Z,28.9
2019-01-15T02:18:34.015Z,29.3
2019-01-15T02:19:24.079Z,29.6
2019-01-15T02:20:14.394Z,29.9
2019-01-15T02:21:03.923Z,30.2
2019-01-15T02:21:54.504Z,29.9
2019-01-15T02:22:43.757Z,29
2019-01-15T02:23:34.326Z,27.4
2019-01-15T02:24:24.677Z,26
2019-01-15T02:25:14.792Z,25.6
2019-01-15T02:26:04.044Z,25.5
2019-01-15T02:26:55.991Z,26.3
2019-01-15T02:27:44.089Z,27.3
2019-01-15T02:28:34.686Z,27.9
2019-01-15T02:29:23.645Z,28.6
2019-01-15T02:30:14.887Z,29
2019-01-15T02:31:05.175Z,29.4
2019-01-15T02:31:54.695Z,29.7
2019-01-15T02:32:45.036Z,30
2019-01-15T02:33:35.072Z,30.3
2019-01-15T02:34:25.439Z,30.5
2019-01-15T02:35:14.661Z,30.8
2019-01-15T02:36:05.498Z,30.9
2019-01-15T02:36:55.074Z,31.2
2019-01-15T02:37:45.073Z,31.3
2019-01-15T02:38:35.387Z,31.5
2019-01-15T02:39:25.433Z,31.6
2019-01-15T02:40:15.835Z,31.8
2019-01-15T02:41:05.081Z,31.9
2019-01-15T02:41:55.359Z,32
2019-01-15T02:42:55.101Z,32.1
2019-01-15T02:43:35.789Z,32.3
2019-01-15T02:44:25.865Z,32.4
2019-01-15T02:45:15.683Z,32.4
2019-01-15T02:46:06.223Z,32.6
2019-01-15T02:46:55.412Z,32.6
2019-01-15T02:47:46.055Z,32.7
2019-01-15T02:48:35.800Z,32.6
2019-01-15T02:49:25.701Z,31.6
2019-01-15T02:50:16.003Z,31.3
2019-01-15T02:51:06.228Z,31.1
2019-01-15T02:51:56.368Z,30.7
2019-01-15T02:52:46.104Z,30.1
2019-01-15T02:53:36.147Z,29.4
2019-01-15T02:54:26.493Z,28.7
2019-01-15T02:55:16.585Z,28.1
2019-01-15T02:56:06.654Z,27.7
2019-01-15T02:56:56.728Z,27.4
2019-01-15T02:57:46.117Z,27.2
2019-01-15T02:58:36.272Z,27.2
2019-01-15T02:59:26.871Z,26.9
2019-01-15T03:00:16.920Z,27.1
2019-01-15T03:01:07.214Z,27.9
2019-01-15T03:01:56.694Z,28.5
2019-01-15T03:02:47.105Z,28.9
2019-01-15T03:03:37.071Z,29.3
2019-01-15T03:04:27.145Z,29.7
2019-01-15T03:05:16.917Z,29.9
2019-01-15T03:08:50.400Z,30.9
2019-01-15T03:09:40.353Z,31.1
2019-01-15T03:10:29.866Z,31.2
2019-01-15T03:11:19.719Z,31.3
2019-01-15T03:12:09.771Z,31.4
2019-01-15T03:13:03.961Z,31.6
2019-01-15T03:13:50.319Z,31.7
2019-01-15T03:14:39.579Z,31.8
2019-01-15T03:15:30.782Z,31.9
2019-01-15T03:16:21.263Z,31.9
2019-01-15T03:17:11.313Z,32.1
2019-01-15T03:18:01.280Z,32.1
2019-01-15T03:18:52.770Z,32.3
2019-01-15T03:19:40.956Z,32.3
2019-01-15T03:20:31.013Z,32.4
2019-01-15T03:21:21.628Z,32.4
2019-01-15T03:22:11.666Z,32.5
2019-01-15T03:23:01.566Z,32.6
2019-01-15T03:23:51.492Z,32.6
2019-01-15T03:24:41.023Z,32
2019-01-15T03:25:31.430Z,31.3
2019-01-15T03:26:21.461Z,31.1
2019-01-15T03:27:11.500Z,30.9
2019-01-15T03:28:02.070Z,30.4
2019-01-15T03:28:50.512Z,29.7
2019-01-15T03:29:41.928Z,29.1
2019-01-15T03:30:31.490Z,28.3
2019-01-15T03:32:12.430Z,27.5
2019-01-15T03:33:02.633Z,27.2
2019-01-15T03:33:52.519Z,27
2019-01-15T03:34:42.307Z,27
2019-01-15T03:35:31.769Z,26.8
2019-01-15T03:36:22.084Z,26.9
2019-01-15T03:37:12.429Z,27.7
2019-01-15T03:38:02.566Z,28.3
2019-01-15T03:38:52.525Z,28.8
2019-01-15T03:39:42.263Z,29.1
2019-01-15T03:40:32.441Z,29.4
2019-01-15T03:41:22.205Z,29.8
2019-01-15T03:42:12.779Z,30
2019-01-15T03:43:12.023Z,30.3
2019-01-15T03:43:52.663Z,30.5
2019-01-15T03:44:42.689Z,30.7
2019-01-15T03:45:33.149Z,30.8
2019-01-15T03:46:22.744Z,31
2019-01-15T03:47:12.279Z,31.1
2019-01-15T03:48:03.234Z,31.3
2019-01-15T03:48:53.281Z,31.4
2019-01-15T03:49:43.224Z,31.5
2019-01-15T03:50:32.836Z,31.6
2019-01-15T03:51:23.093Z,31.1
2019-01-15T03:52:12.875Z,30.1
2019-01-15T03:53:03.777Z,28.2
2019-01-15T03:53:53.587Z,26.8
2019-01-15T03:54:43.871Z,26.8
2019-01-15T03:55:33.428Z,26.8
2019-01-15T03:56:23.125Z,27.7
2019-01-15T03:57:13.726Z,28.4
2019-01-15T03:58:03.278Z,28.9
2019-01-15T03:58:53.600Z,29.4
2019-01-15T03:59:43.217Z,29.7
2019-01-15T04:00:33.960Z,29.9
2019-01-15T04:01:24.122Z,30.2
2019-01-15T04:02:14.397Z,30.4
2019-01-15T04:03:04.351Z,30.7
2019-01-15T04:03:53.970Z,30.9
2019-01-15T04:04:44.023Z,31
2019-01-15T04:05:34.336Z,31.2
2019-01-15T04:06:24.702Z,31.3
2019-01-15T04:07:14.427Z,31.5
2019-01-15T04:08:04.520Z,31.6
2019-01-15T04:08:54.907Z,31.7
2019-01-15T04:09:44.084Z,31.8
2019-01-15T04:10:34.181Z,31.9
2019-01-15T04:11:24.972Z,32
2019-01-15T04:12:14.778Z,32.1
2019-01-15T04:13:12.437Z,32.1
2019-01-15T04:13:54.645Z,32.3
2019-01-15T04:14:45.215Z,32.3
2019-01-15T04:15:35.042Z,32.4
2019-01-15T04:16:25.331Z,32.4
2019-01-15T04:17:15.166Z,32.5
2019-01-15T04:18:05.491Z,32.6
2019-01-15T04:18:57.274Z,32.7
2019-01-15T04:19:45.587Z,32.4
2019-01-15T04:20:35.381Z,31.5
2019-01-15T04:21:24.559Z,31.3
2019-01-15T04:22:14.313Z,31
2019-01-15T04:23:05.547Z,30.6
2019-01-15T04:23:55.880Z,30
2019-01-15T04:24:45.315Z,29.3
2019-01-15T04:25:37.255Z,28.6
2019-01-15T04:26:24.984Z,28.1
2019-01-15T04:27:15.764Z,27.8
2019-01-15T04:28:05.552Z,27.5
2019-01-15T04:28:55.057Z,27.3
2019-01-15T04:29:46.229Z,27.3
2019-01-15T04:30:36.058Z,27
2019-01-15T04:31:26.469Z,27
2019-01-15T04:32:15.898Z,27.8
2019-01-15T04:33:06.205Z,28.3
2019-01-15T04:33:56.068Z,28.8
2019-01-15T04:34:46.615Z,29.1
2019-01-15T04:35:36.051Z,29.5
2019-01-15T04:36:26.111Z,29.8
2019-01-15T04:37:16.782Z,30.1
2019-01-15T04:38:06.523Z,30.3
2019-01-15T04:38:56.875Z,30.5
2019-01-15T04:39:46.096Z,30.7
2019-01-15T04:40:36.428Z,30.9
2019-01-15T04:41:26.596Z,31
2019-01-15T04:42:16.798Z,31.1
2019-01-15T04:43:07.130Z,31.3
2019-01-15T04:43:56.163Z,31.4
2019-01-15T04:44:46.693Z,31.5
2019-01-15T04:45:37.037Z,31.6
2019-01-15T04:46:27.463Z,31.8
2019-01-15T04:47:16.878Z,31.9
2019-01-15T04:48:07.435Z,31.9
2019-01-15T04:48:57.528Z,32
2019-01-15T04:49:47.061Z,32.1
2019-01-15T04:50:37.065Z,32.2
2019-01-15T04:51:27.432Z,32.3
2019-01-15T04:52:17.515Z,32.4
2019-01-15T04:53:07.716Z,32.4
2019-01-15T04:53:57.573Z,32.5
2019-01-15T04:54:47.917Z,32.6
2019-01-15T04:55:37.729Z,32.6
2019-01-15T04:56:27.765Z,32.7
2019-01-15T04:57:18.123Z,31.9
2019-01-15T04:58:07.914Z,31.3
2019-01-15T04:58:57.397Z,31.1
2019-01-15T04:59:47.432Z,30.8
2019-01-15T05:00:38.060Z,30.3
2019-01-15T05:01:27.830Z,29.6
2019-01-15T05:02:18.499Z,29.2
2019-01-15T05:03:08.315Z,28.8
2019-01-15T05:03:57.750Z,28.6
2019-01-15T05:04:48.054Z,28.3
2019-01-15T05:05:38.106Z,28.2
2019-01-15T05:06:28.176Z,28
2019-01-15T05:07:18.471Z,27.8
2019-01-15T05:08:08.329Z,27.6
2019-01-15T05:08:58.564Z,28.2
2019-01-15T05:09:47.891Z,28.6
2019-01-15T05:10:38.734Z,28.9
2019-01-15T05:11:28.531Z,29.3
2019-01-15T05:12:19.086Z,29.6
2019-01-15T05:13:08.959Z,29.8
2019-01-15T05:13:59.263Z,30.1
2019-01-15T05:14:48.436Z,30.3
2019-01-15T05:15:38.762Z,30.5
2019-01-15T05:16:28.598Z,30.8
2019-01-15T05:17:18.587Z,30.9
2019-01-15T05:18:08.974Z,31.1
2019-01-15T05:18:58.734Z,31.3
2019-01-15T05:19:48.489Z,30.8
2019-01-15T05:20:39.161Z,29.6
2019-01-15T05:21:29.485Z,27.6
2019-01-15T05:22:19.538Z,26.3
2019-01-15T05:23:09.603Z,25.1
2019-01-15T05:23:59.633Z,24.8
2019-01-15T05:24:49.481Z,24.8
2019-01-15T05:25:39.226Z,25.6
2019-01-15T05:26:31.679Z,26.5
2019-01-15T05:27:19.103Z,27.3
2019-01-15T05:28:09.154Z,27.9
2019-01-15T05:28:58.923Z,28.4
2019-01-15T05:29:49.760Z,28.9
2019-01-15T05:30:40.064Z,29.3
2019-01-15T05:31:30.421Z,29.6
2019-01-15T05:32:20.528Z,29.9
2019-01-15T05:33:10.280Z,30.2
2019-01-15T05:34:00.301Z,30.4
2019-01-15T05:34:50.059Z,30.7
2019-01-15T05:35:40.498Z,30.9
2019-01-15T05:36:30.714Z,31.1
2019-01-15T05:37:20.773Z,31.3
2019-01-15T05:38:10.252Z,31.4
2019-01-15T05:39:00.940Z,31.6
2019-01-15T05:39:50.523Z,31.8
2019-01-15T05:40:39.770Z,31.9
2019-01-15T05:41:29.829Z,31.9
2019-01-15T05:42:20.173Z,32.1
2019-01-15T05:43:10.697Z,32.2
2019-01-15T05:44:00.261Z,32.3
2019-01-15T05:44:50.281Z,32.3
2019-01-15T05:45:40.367Z,32.4
2019-01-15T05:46:30.127Z,32.5
2019-01-15T05:47:20.971Z,32.5
2019-01-15T05:48:11.289Z,32.6
2019-01-15T05:49:01.550Z,32.7
2019-01-15T05:49:52.751Z,32.8
2019-01-15T05:50:40.904Z,32.9
2019-01-15T05:51:31.476Z,32.9
2019-01-15T05:52:21.201Z,32.9
2019-01-15T05:53:11.574Z,31.9
2019-01-15T05:54:01.357Z,31.6
2019-01-15T05:54:51.416Z,31.4
2019-01-15T05:55:41.751Z,31.2
2019-01-15T05:56:31.959Z,30.8
2019-01-15T05:57:22.050Z,30.3
2019-01-15T05:58:12.189Z,29.8
2019-01-15T05:59:01.441Z,29.6
2019-01-15T05:59:50.940Z,29.3
2019-01-15T06:00:41.589Z,29.1
2019-01-15T06:01:30.829Z,29
2019-01-15T06:02:21.872Z,28.7
2019-01-15T06:03:12.268Z,28.1
2019-01-15T06:04:01.996Z,27.9
2019-01-15T06:06:50.330Z,29.3
2019-01-15T06:07:42.083Z,29.7
2019-01-15T06:08:29.935Z,30
2019-01-15T06:09:20.215Z,30.2
2019-01-15T06:10:09.995Z,30.4
2019-01-15T06:11:00.607Z,30.6
2019-01-15T06:11:50.382Z,30.8
2019-01-15T06:12:40.437Z,30.9
2019-01-15T06:13:30.508Z,31.1
2019-01-15T06:14:20.342Z,31.3
2019-01-15T06:15:10.909Z,31.4
2019-01-15T06:16:00.667Z,31.5
2019-01-15T06:16:51.009Z,31.6
2019-01-15T06:17:40.510Z,31.7
2019-01-15T06:18:31.092Z,31.8
2019-01-15T06:19:21.177Z,31.9
2019-01-15T06:20:10.932Z,32
2019-01-15T06:21:00.756Z,32.1
2019-01-15T06:21:51.318Z,32.2
2019-01-15T06:22:41.107Z,32.3
2019-01-15T06:23:31.704Z,32.3
2019-01-15T06:24:21.764Z,32.4
2019-01-15T06:25:11.727Z,32.5
2019-01-15T06:26:01.616Z,32.6
2019-01-15T06:26:51.696Z,32.6
2019-01-15T06:27:41.473Z,31.7
2019-01-15T06:28:32.069Z,31.4
2019-01-15T06:29:21.818Z,31.2
2019-01-15T06:30:11.908Z,30.9
2019-01-15T06:31:01.111Z,30.5
2019-01-15T06:31:51.156Z,30.1
2019-01-15T06:32:42.106Z,29.8
2019-01-15T06:33:32.003Z,29.5
2019-01-15T06:34:22.023Z,29.3
2019-01-15T06:35:12.271Z,29.1
2019-01-15T06:36:02.389Z,29
2019-01-15T06:36:52.435Z,28.6
2019-01-15T06:37:42.538Z,28.2
2019-01-15T06:38:32.468Z,27.9
2019-01-15T06:39:21.953Z,27.6
2019-01-15T06:40:12.301Z,27.3
2019-01-15T06:41:02.950Z,27.9
2019-01-15T06:41:52.136Z,28.4
2019-01-15T06:42:42.236Z,28.8
2019-01-15T06:43:32.313Z,29.2
2019-01-15T06:44:23.103Z,29.5
2019-01-15T06:45:13.143Z,29.8
2019-01-15T06:46:02.960Z,30.1
2019-01-15T06:46:52.448Z,30.3
2019-01-15T06:47:43.325Z,30.5
2019-01-15T06:48:32.606Z,30.7
2019-01-15T06:49:23.438Z,30.9
2019-01-15T06:50:13.240Z,31.1
2019-01-15T06:51:02.808Z,31.2
2019-01-15T06:51:52.760Z,31.3
2019-01-15T06:52:43.120Z,30.4
2019-01-15T06:53:33.460Z,29.2
2019-01-15T06:54:23.860Z,27.5
2019-01-15T06:55:13.554Z,26.3
2019-01-15T06:56:03.620Z,25.3
2019-01-15T06:56:53.674Z,25.1
2019-01-15T06:57:43.477Z,25.1
2019-01-15T06:58:34.077Z,26.1
2019-01-15T06:59:23.614Z,27.1
2019-01-15T07:01:03.749Z,28.4
2019-01-15T07:01:54.057Z,28.9
2019-01-15T07:02:43.289Z,29.4
2019-01-15T07:03:34.089Z,29.6
2019-01-15T07:04:24.164Z,29.9
2019-01-15T07:06:50.294Z,30.6
2019-01-15T07:07:40.613Z,30.9
2019-01-15T07:08:30.388Z,31.1
2019-01-15T07:09:20.434Z,31.3
2019-01-15T07:10:09.931Z,31.4
2019-01-15T07:11:00.258Z,31.6
2019-01-15T07:11:50.593Z,31.8
2019-01-15T07:12:40.963Z,31.9
2019-01-15T07:13:30.992Z,31.1
2019-01-15T07:14:21.057Z,30.6
2019-01-15T07:15:11.089Z,30.4
2019-01-15T07:16:00.601Z,30.1
2019-01-15T07:16:50.746Z,30
2019-01-15T07:17:40.501Z,29.8
2019-01-15T07:18:30.295Z,29.7
2019-01-15T07:20:11.423Z,29.6
2019-01-15T07:21:02.018Z,29.5
2019-01-15T07:21:51.540Z,29.4
2019-01-15T07:22:41.669Z,29.4
2019-01-15T07:23:31.658Z,28.9
2019-01-15T07:24:21.437Z,28.6
2019-01-15T07:25:11.491Z,29
2019-01-15T07:26:01.833Z,29.4
2019-01-15T07:26:51.065Z,29.8
2019-01-15T07:27:41.115Z,30.2
2019-01-15T07:28:30.957Z,30.4
2019-01-15T07:29:21.497Z,30.6
2019-01-15T07:30:11.872Z,30.7
2019-01-15T07:31:01.607Z,30.9
2019-01-15T07:31:51.667Z,31
2019-01-15T07:32:42.309Z,31.1
2019-01-15T07:33:32.397Z,31.3
2019-01-15T07:34:21.874Z,31.4
2019-01-15T07:35:12.512Z,31.5
2019-01-15T07:36:02.247Z,31.6
2019-01-15T07:36:51.707Z,31.7
2019-01-15T07:37:42.069Z,31.8
2019-01-15T07:38:31.564Z,31.6
2019-01-15T07:39:22.176Z,30.8
2019-01-15T07:40:12.496Z,30.4
2019-01-15T07:41:02.336Z,30.1
2019-01-15T07:41:51.807Z,29.9
2019-01-15T07:42:42.283Z,29.8
2019-01-15T07:43:32.746Z,29.6
2019-01-15T07:44:22.704Z,29.5
2019-01-15T07:45:13.104Z,29.4
2019-01-15T07:46:02.063Z,29.3
2019-01-15T07:46:52.722Z,29.3
2019-01-15T07:47:43.139Z,29.3
2019-01-15T07:48:32.950Z,28.7
2019-01-15T07:49:22.395Z,28.1
2019-01-15T07:50:12.477Z,27.8
2019-01-15T07:51:03.140Z,27.4
2019-01-15T07:51:52.838Z,27.2
2019-01-15T07:53:33.446Z,28.4
2019-01-15T07:54:23.806Z,28.8
2019-01-15T07:55:14.986Z,29.4
2019-01-15T07:56:03.623Z,29.9
2019-01-15T07:56:53.114Z,30.1
2019-01-15T07:57:43.173Z,30.3
2019-01-15T07:58:34.025Z,30.4
2019-01-15T07:59:23.801Z,30.6
2019-01-15T08:00:13.853Z,30.7
2019-01-15T08:01:03.648Z,30.9
2019-01-15T08:01:53.697Z,31
2019-01-15T08:02:43.808Z,31.1
2019-01-15T08:03:36.120Z,31.3
2019-01-15T08:04:23.562Z,31.3
2019-01-15T08:05:13.914Z,31.4
2019-01-15T08:06:04.515Z,31.5
2019-01-15T08:06:54.032Z,31.6
2019-01-15T08:07:44.375Z,31.8
2019-01-15T08:08:34.460Z,31.8
2019-01-15T08:09:24.832Z,31
2019-01-15T08:10:14.539Z,30.4
2019-01-15T08:11:05.492Z,30.1
2019-01-15T08:11:54.657Z,29.9
2019-01-15T08:12:44.429Z,29.7
2019-01-15T08:13:35.031Z,29.6
2019-01-15T08:14:24.531Z,29.4
2019-01-15T08:15:15.147Z,29.3
2019-01-15T08:16:05.244Z,29.3
2019-01-15T08:16:54.787Z,29.2
2019-01-15T08:17:44.481Z,29.1
2019-01-15T08:18:34.354Z,28.8
2019-01-15T08:19:24.667Z,28.1
2019-01-15T08:20:15.209Z,27.8
2019-01-15T08:21:04.254Z,27.5
2019-01-15T08:21:56.942Z,27.1
2019-01-15T08:22:45.384Z,27.4
2019-01-15T08:23:35.420Z,28
2019-01-15T08:24:25.002Z,28.6
2019-01-15T08:25:15.624Z,29
2019-01-15T08:26:05.399Z,29.5
2019-01-15T08:26:55.156Z,29.9
2019-01-15T08:27:46.016Z,30.1
2019-01-15T08:28:36.066Z,30.3
2019-01-15T08:29:26.108Z,30.4
2019-01-15T08:30:15.586Z,30.6
2019-01-15T08:31:04.926Z,30.8
2019-01-15T08:31:56.041Z,30.9
2019-01-15T08:32:45.823Z,31
2019-01-15T08:33:36.423Z,31.1
2019-01-15T08:34:26.164Z,31.3
2019-01-15T08:35:16.485Z,31.4
2019-01-15T08:36:06.329Z,31.4
2019-01-15T08:36:56.348Z,31.5
2019-01-15T08:37:46.104Z,30.6
2019-01-15T08:38:36.135Z,29.5
2019-01-15T08:39:25.735Z,27.9
2019-01-15T08:40:16.331Z,26.6
2019-01-15T08:41:06.596Z,25.9
2019-01-15T08:41:57.473Z,25.8
2019-01-15T08:42:46.770Z,26.3
2019-01-15T08:43:37.051Z,27.3
2019-01-15T08:44:27.027Z,27.9
2019-01-15T08:45:16.950Z,28.6
2019-01-15T08:46:06.950Z,29.2
2019-01-15T08:46:56.235Z,29.7
2019-01-15T08:47:46.497Z,29.9
2019-01-15T08:48:36.570Z,30.2
2019-01-15T08:49:27.190Z,30.4
2019-01-15T08:50:17.502Z,30.6
2019-01-15T08:51:06.717Z,30.9
2019-01-15T08:51:57.334Z,31
2019-01-15T08:52:47.655Z,31.2
2019-01-15T08:53:36.429Z,31.4
2019-01-15T08:54:29.293Z,31.5
2019-01-15T08:55:17.275Z,31.6
2019-01-15T08:56:07.630Z,31.8
2019-01-15T08:56:57.715Z,31.8
2019-01-15T08:57:47.456Z,32
2019-01-15T08:58:37.790Z,31.1
2019-01-15T08:59:27.887Z,30.6
2019-01-15T09:00:17.380Z,30.3
2019-01-15T09:01:07.992Z,30.1
2019-01-15T09:01:58.011Z,29.9
2019-01-15T09:02:48.111Z,29.8
2019-01-15T09:03:38.467Z,29.6
2019-01-15T09:04:28.201Z,29.6
2019-01-15T09:05:17.976Z,29.5
2019-01-15T09:06:07.796Z,29.4
2019-01-15T09:06:58.825Z,29.3
2019-01-15T09:07:48.121Z,29.3
2019-01-15T09:08:38.469Z,28.7
2019-01-15T09:09:28.223Z,28.6
2019-01-15T09:10:18.674Z,29.1
2019-01-15T09:11:09.216Z,29.5
2019-01-15T09:11:57.999Z,29.9
2019-01-15T09:12:48.009Z,30.3
2019-01-15T09:13:38.814Z,30.6
2019-01-15T09:14:34.834Z,30.7
2019-01-15T09:15:19.551Z,30.8
2019-01-15T09:16:08.473Z,30.9
2019-01-15T09:17:00.506Z,31
2019-01-15T09:17:48.879Z,31.1
2019-01-15T09:18:39.018Z,31.3
2019-01-15T09:19:28.742Z,31.3
2019-01-15T09:20:20.286Z,31.4
2019-01-15T09:21:09.146Z,31.6
2019-01-15T09:21:58.923Z,31.6
2019-01-15T09:22:49.266Z,31.8
2019-01-15T09:23:39.775Z,31.8
2019-01-15T09:24:29.816Z,31.9
2019-01-15T09:25:19.472Z,31.4
2019-01-15T09:26:10.255Z,30.7
2019-01-15T09:26:59.987Z,30.3
2019-01-15T09:27:50.175Z,29.9
2019-01-15T09:28:39.550Z,29.8
2019-01-15T09:29:29.392Z,29.6
2019-01-15T09:30:20.292Z,29.4
2019-01-15T09:31:10.262Z,29.3
2019-01-15T09:32:00.360Z,29.2
2019-01-15T09:32:49.888Z,29.2
2019-01-15T09:33:40.160Z,29.1
2019-01-15T09:34:29.942Z,29.1
2019-01-15T09:35:20.002Z,28.9
2019-01-15T09:36:10.612Z,28.3
2019-01-15T09:37:00.162Z,28.8
2019-01-15T09:37:50.165Z,29.2
2019-01-15T09:38:40.819Z,29.6
2019-01-15T09:39:29.991Z,30.1
2019-01-15T09:40:20.946Z,30.4
2019-01-15T09:41:10.654Z,30.6
2019-01-15T09:42:00.460Z,30.7
2019-01-15T09:42:49.749Z,30.8
2019-01-15T09:43:40.542Z,30.9
2019-01-15T09:44:38.447Z,31
2019-01-15T09:45:21.357Z,31.1
2019-01-15T09:46:11.045Z,31.3
2019-01-15T09:47:01.044Z,31.4
2019-01-15T09:47:51.196Z,31.5
2019-01-15T09:48:40.971Z,31.6
2019-01-15T09:49:30.952Z,31.7
2019-01-15T09:50:23.015Z,31.8
2019-01-15T09:51:11.076Z,31.9
2019-01-15T09:52:01.679Z,31.9
2019-01-15T09:52:51.174Z,31.6
2019-01-15T09:53:40.941Z,30.8
2019-01-15T09:54:31.281Z,30.3
2019-01-15T09:55:21.912Z,30
2019-01-15T09:56:11.396Z,29.8
2019-01-15T09:57:01.235Z,29.6
2019-01-15T09:57:51.521Z,29.4
2019-01-15T09:58:41.851Z,29.4
2019-01-15T09:59:31.906Z,29.3
2019-01-15T10:00:21.963Z,29.2
2019-01-15T10:01:12.006Z,29.1
2019-01-15T10:02:02.061Z,29.1
2019-01-15T10:02:51.866Z,28.5
2019-01-15T10:03:42.430Z,28
2019-01-15T10:04:32.335Z,27.6
2019-01-15T10:05:22.068Z,27.4
2019-01-15T10:07:50.135Z,28.1
2019-01-15T10:08:39.937Z,28.7
2019-01-15T10:09:29.994Z,29.2
2019-01-15T10:10:19.567Z,29.8
2019-01-15T10:11:09.780Z,30.2
2019-01-15T10:12:00.685Z,30.4
2019-01-15T10:12:50.494Z,30.6
2019-01-15T10:13:40.570Z,30.7
2019-01-15T10:14:30.857Z,30.8
2019-01-15T10:15:19.423Z,31
2019-01-15T10:16:12.760Z,31.1
2019-01-15T10:17:01.045Z,31.2
2019-01-15T10:17:50.284Z,31.3
2019-01-15T10:18:41.122Z,30.3
2019-01-15T10:19:30.630Z,29.3
2019-01-15T10:20:21.252Z,27.8
2019-01-15T10:21:11.289Z,26.4
2019-01-15T10:22:01.099Z,26
2019-01-15T10:22:51.501Z,25.9
2019-01-15T10:23:41.234Z,26.8
2019-01-15T10:24:30.988Z,27.6
2019-01-15T10:25:21.592Z,28.2
2019-01-15T10:26:11.361Z,28.9
2019-01-15T10:27:01.702Z,29.4
2019-01-15T10:27:51.816Z,30
2019-01-15T10:28:41.577Z,30.4
2019-01-15T10:29:30.806Z,30.5
2019-01-15T10:30:21.654Z,30.7
2019-01-15T10:31:11.984Z,30.8
2019-01-15T10:32:01.763Z,31
2019-01-15T10:32:50.981Z,31.1
2019-01-15T10:33:43.657Z,31.3
2019-01-15T10:34:31.913Z,31.4
2019-01-15T10:35:22.031Z,31.6
2019-01-15T10:36:12.018Z,31.7
2019-01-15T10:37:01.511Z,31.8
2019-01-15T10:37:51.853Z,31.9
2019-01-15T10:38:41.920Z,31.9
2019-01-15T10:39:32.549Z,31
2019-01-15T10:40:21.785Z,30.5
2019-01-15T10:41:12.655Z,30.2
2019-01-15T10:42:02.148Z,29.9
2019-01-15T10:42:52.196Z,29.8
2019-01-15T10:43:42.833Z,29.6
2019-01-15T10:44:32.871Z,29.5
2019-01-15T10:45:22.405Z,29.4
2019-01-15T10:46:12.710Z,29.3
2019-01-15T10:47:02.615Z,29.3
2019-01-15T10:47:52.548Z,29.2
2019-01-15T10:48:42.616Z,29.1
2019-01-15T10:49:32.657Z,28.6
2019-01-15T10:50:22.435Z,28.6
2019-01-15T10:51:13.382Z,29.1
2019-01-15T10:52:03.123Z,29.4
2019-01-15T10:52:53.183Z,29.9
2019-01-15T10:53:43.462Z,30.4
2019-01-15T10:54:33.259Z,30.5
2019-01-15T10:55:23.313Z,30.6
2019-01-15T10:56:12.899Z,30.8
2019-01-15T10:57:02.934Z,30.9
2019-01-15T10:57:53.007Z,31
2019-01-15T10:58:43.809Z,31.2
2019-01-15T10:59:33.624Z,31.3
2019-01-15T11:00:23.458Z,31.4
2019-01-15T11:01:13.729Z,31.4
2019-01-15T11:02:03.210Z,31.6
2019-01-15T11:02:53.837Z,31.7
2019-01-15T11:03:43.876Z,31.8
2019-01-15T11:04:33.957Z,31.8
2019-01-15T11:05:23.549Z,31.9
2019-01-15T11:06:13.224Z,31.9
2019-01-15T11:07:04.124Z,31
2019-01-15T11:07:54.149Z,30.5
2019-01-15T11:08:44.249Z,30.2
2019-01-15T11:09:33.782Z,29.9
2019-01-15T11:10:23.769Z,29.8
2019-01-15T11:11:14.104Z,29.6
2019-01-15T11:12:04.220Z,29.5
2019-01-15T11:12:54.003Z,29.4
2019-01-15T11:13:43.731Z,29.3
2019-01-15T11:14:34.723Z,29.3
2019-01-15T11:15:24.658Z,29.3
2019-01-15T11:16:15.016Z,29
2019-01-15T11:17:04.306Z,28.4
2019-01-15T11:17:54.352Z,28.9
2019-01-15T11:18:45.887Z,29.4
2019-01-15T11:19:34.469Z,29.8
2019-01-15T11:20:24.991Z,30.3
2019-01-15T11:21:15.383Z,30.6
2019-01-15T11:22:04.544Z,30.8
2019-01-15T11:22:55.448Z,30.8
2019-01-15T11:23:44.665Z,30.9